Time;durP1;ratioP1;P1;durP2;ratioP2;P2;SDS_P1;SDS_P2;PMS_P1;PMS_P2;Temp;Humidity;BMP_temperature;BMP_pressure;BME280_temperature;BME280_humidity;BME280_pressure;Samples;Min_cycle;Max_cycle;Signal;HPM_P1;HPM_P2
2023/12/29 00:02:52;;;;;;;26.20;13.80;;;;;;;0.21;85.76;100109.66;130238;1257;116136;-77
2023/12/29 00:05:54;;;;;;;18.00;11.80;;;;;;;0.19;85.96;100106.86;130312;1277;114748;-75
2023/12/29 00:08:56;;;;;;;22.20;10.10;;;;;;;0.18;85.92;100104.23;130279;1255;115391;-76
2023/12/29 00:11:58;;;;;;;17.10;10.20;;;;;;;0.18;85.94;100094.92;130155;1277;115203;-76
2023/12/29 00:15:00;;;;;;;16.90;9.10;;;;;;;0.19;86.28;100091.23;130270;1259;114749;-78
2023/12/29 00:18:02;;;;;;;16.80;10.30;;;;;;;0.22;86.53;100087.52;130215;1259;114716;-78
2023/12/29 00:21:05;;;;;;;16.70;9.30;;;;;;;0.26;87.02;100085.54;130266;1257;114904;-78
2023/12/29 00:24:07;;;;;;;16.90;9.60;;;;;;;0.32;87.54;100085.66;129795;1257;127571;-76
2023/12/29 00:27:11;;;;;;;16.00;8.70;;;;;;;0.36;87.48;100087.36;129639;1257;114709;-77
2023/12/29 00:30:13;;;;;;;15.50;9.00;;;;;;;0.43;87.80;100087.64;130298;1258;114812;-74
2023/12/29 00:33:15;;;;;;;14.70;8.40;;;;;;;0.50;87.92;100089.30;130053;1259;114833;-78
2023/12/29 00:36:19;;;;;;;15.90;9.50;;;;;;;0.56;88.23;100084.67;130252;1258;114783;-77
2023/12/29 00:39:29;;;;;;;16.00;9.40;;;;;;;0.59;88.34;100079.01;129921;1265;114644;-77
2023/12/29 00:42:31;;;;;;;14.30;7.90;;;;;;;0.64;88.33;100075.09;129851;1259;128067;-78
2023/12/29 00:45:35;;;;;;;12.50;7.60;;;;;;;0.67;88.41;100068.02;130224;1257;114941;-78
2023/12/29 00:48:38;;;;;;;17.00;8.70;;;;;;;0.73;89.22;100063.72;130206;1259;115347;-77
2023/12/29 00:51:43;;;;;;;13.70;8.10;;;;;;;0.84;89.94;100062.52;130213;1258;115254;-77
2023/12/29 00:54:45;;;;;;;15.00;9.60;;;;;;;0.96;90.35;100061.84;129890;1255;114707;-78
2023/12/29 00:57:47;;;;;;;15.20;8.30;;;;;;;1.05;90.53;100065.77;130182;1256;115862;-78
2023/12/29 01:00:49;;;;;;;14.90;9.20;;;;;;;1.13;90.25;100065.64;130256;1256;114745;-77
2023/12/29 01:03:54;;;;;;;14.10;8.90;;;;;;;1.20;90.63;100066.24;129938;1277;114763;-76
2023/12/29 01:06:56;;;;;;;13.40;8.20;;;;;;;1.28;91.01;100055.39;129968;1257;114790;-77
2023/12/29 01:09:59;;;;;;;14.80;8.90;;;;;;;1.35;90.69;100054.75;130263;1259;114724;-77
2023/12/29 01:13:01;;;;;;;13.80;8.60;;;;;;;1.42;91.08;100051.11;130233;1259;114785;-77
2023/12/29 01:16:04;;;;;;;13.00;8.20;;;;;;;1.49;91.27;100051.54;130228;1258;114820;-77
2023/12/29 01:19:06;;;;;;;13.90;8.80;;;;;;;1.55;91.05;100049.15;130224;1259;128836;-77
2023/12/29 01:22:08;;;;;;;15.40;8.20;;;;;;;1.59;91.18;100050.67;130242;1259;115332;-77
2023/12/29 01:25:10;;;;;;;12.20;8.00;;;;;;;1.60;90.69;100050.48;130257;1259;114728;-78
2023/12/29 01:28:12;;;;;;;15.50;8.30;;;;;;;1.62;91.01;100047.46;129996;1256;114803;-78
2023/12/29 01:31:14;;;;;;;12.30;8.50;;;;;;;1.65;90.99;100044.05;130314;1257;114979;-77
2023/12/29 01:34:17;;;;;;;10.90;7.70;;;;;;;1.69;91.43;100040.30;130216;1259;114766;-78
2023/12/29 01:37:19;;;;;;;12.60;8.70;;;;;;;1.72;91.44;100033.73;130237;1260;114655;-78
2023/12/29 01:40:21;;;;;;;13.70;8.50;;;;;;;1.77;91.65;100034.70;130251;1259;114702;-78
2023/12/29 01:43:23;;;;;;;11.30;7.70;;;;;;;1.82;91.73;100031.97;130416;1259;114811;-79
2023/12/29 01:46:27;;;;;;;13.50;8.40;;;;;;;1.87;91.93;100031.35;129817;1265;115336;-79
2023/12/29 01:49:29;;;;;;;12.70;8.70;;;;;;;1.92;91.95;100028.44;129974;1264;114799;-79
2023/12/29 01:52:31;;;;;;;12.90;8.00;;;;;;;1.96;91.94;100033.65;130095;1276;114782;-79
2023/12/29 01:55:33;;;;;;;11.00;7.70;;;;;;;2.02;92.16;100035.30;130102;1270;114739;-78
2023/12/29 01:58:36;;;;;;;10.20;7.00;;;;;;;2.06;92.07;100032.42;130059;1263;114914;-78
2023/12/29 02:01:41;;;;;;;12.10;8.00;;;;;;;2.11;92.44;100033.02;130171;1277;114801;-78
2023/12/29 02:04:44;;;;;;;13.20;8.60;;;;;;;2.15;92.40;100030.46;130182;1259;114794;-78
2023/12/29 02:07:46;;;;;;;11.50;7.10;;;;;;;2.18;92.50;100030.95;130184;1257;115119;-73
2023/12/29 02:10:49;;;;;;;13.10;8.10;;;;;;;2.22;92.34;100028.05;130167;1254;114795;-72
2023/12/29 02:13:52;;;;;;;14.50;9.90;;;;;;;2.23;92.39;100026.79;130267;1260;114747;-78
2023/12/29 02:17:16;;;;;;;11.30;8.60;;;;;;;2.26;92.61;100024.80;130356;1257;114742;-76
2023/12/29 02:20:19;;;;;;;11.10;7.10;;;;;;;2.28;92.32;100016.65;130185;1259;127921;-78
2023/12/29 02:23:21;;;;;;;11.00;7.40;;;;;;;2.29;92.38;100007.30;130011;1260;114791;-78
2023/12/29 02:26:26;;;;;;;12.30;7.00;;;;;;;2.29;92.43;100002.19;129963;1259;114793;-79
2023/12/29 02:29:30;;;;;;;12.40;7.10;;;;;;;2.28;92.27;100008.55;129934;1262;114790;-77
2023/12/29 02:32:33;;;;;;;13.10;8.60;;;;;;;2.29;92.19;100002.20;129923;1260;114861;-78
2023/12/29 02:35:39;;;;;;;13.40;6.60;;;;;;;2.29;92.37;99995.84;130066;1262;128745;-79
2023/12/29 02:38:42;;;;;;;12.20;7.90;;;;;;;2.30;92.30;100000.41;129923;1265;114740;-77
2023/12/29 02:41:44;;;;;;;10.80;6.80;;;;;;;2.31;92.36;99993.88;130072;1257;114885;-76
2023/12/29 02:44:46;;;;;;;9.80;6.50;;;;;;;2.31;92.30;99989.30;130305;1260;114758;-72
2023/12/29 02:47:48;;;;;;;11.90;7.60;;;;;;;2.29;92.09;99985.98;130261;1275;116176;-77
2023/12/29 02:50:51;;;;;;;10.10;7.50;;;;;;;2.28;92.00;99974.89;129820;1263;114659;-75
2023/12/29 02:53:53;;;;;;;8.90;6.60;;;;;;;2.28;92.44;99974.54;130247;1256;114706;-76
2023/12/29 02:56:56;;;;;;;10.00;7.10;;;;;;;2.28;92.14;99967.33;130228;1256;116074;-78
2023/12/29 02:59:59;;;;;;;9.40;7.30;;;;;;;2.24;91.93;99961.92;130227;1260;114918;-78
2023/12/29 03:03:01;;;;;;;9.30;6.70;;;;;;;2.23;92.19;99964.61;130173;1257;114593;-79
2023/12/29 03:06:03;;;;;;;10.50;7.20;;;;;;;2.21;92.10;99958.66;130059;1267;115332;-79
2023/12/29 03:09:05;;;;;;;10.50;7.40;;;;;;;2.18;92.01;99952.55;130294;1256;114867;-78
2023/12/29 03:12:08;;;;;;;10.00;6.90;;;;;;;2.17;92.23;99949.93;130089;1260;114709;-78
2023/12/29 03:15:10;;;;;;;8.60;6.50;;;;;;;2.18;92.21;99951.86;130320;1259;115992;-76
2023/12/29 03:18:12;;;;;;;7.80;5.90;;;;;;;2.17;91.99;99945.88;130271;1259;128977;-78
2023/12/29 03:21:14;;;;;;;8.00;5.50;;;;;;;2.15;91.60;99951.20;130226;1259;115314;-77
2023/12/29 03:24:16;;;;;;;9.90;6.80;;;;;;;2.12;91.69;99946.15;130103;1260;114979;-78
2023/12/29 03:27:18;;;;;;;8.70;5.60;;;;;;;2.08;91.51;99942.00;130326;1259;114747;-75
2023/12/29 03:30:21;;;;;;;9.00;6.60;;;;;;;2.05;91.41;99944.36;130247;1268;115185;-79
2023/12/29 03:33:23;;;;;;;8.40;5.70;;;;;;;2.02;91.54;99945.46;130251;1257;114643;-77
2023/12/29 03:36:25;;;;;;;8.50;5.80;;;;;;;1.99;91.33;99946.95;130255;1259;114988;-75
2023/12/29 03:39:27;;;;;;;7.00;5.20;;;;;;;1.94;91.13;99944.05;130146;1260;114786;-78
2023/12/29 03:42:29;;;;;;;7.80;5.80;;;;;;;1.90;91.08;99947.30;130317;1259;115163;-74
2023/12/29 03:45:31;;;;;;;10.10;5.80;;;;;;;1.86;91.07;99947.20;130229;1260;114738;-77
2023/12/29 03:48:33;;;;;;;8.10;5.60;;;;;;;1.84;91.56;99937.36;130225;1259;115340;-77
2023/12/29 03:51:35;;;;;;;6.60;5.30;;;;;;;1.83;91.35;99934.55;130210;1267;114718;-77
2023/12/29 03:54:37;;;;;;;8.60;5.50;;;;;;;1.82;91.37;99928.63;130176;1259;114740;-78
2023/12/29 03:57:39;;;;;;;8.00;6.40;;;;;;;1.77;90.81;99926.77;130158;1263;114742;-78
2023/12/29 04:00:41;;;;;;;9.60;5.50;;;;;;;1.73;91.00;99920.33;130294;1254;115660;-79
2023/12/29 04:03:44;;;;;;;10.00;5.70;;;;;;;1.68;91.18;99918.13;130152;1259;128898;-77
2023/12/29 04:06:46;;;;;;;10.50;6.70;;;;;;;1.66;91.36;99919.05;130040;1270;115209;-77
2023/12/29 04:09:48;;;;;;;9.90;5.70;;;;;;;1.66;91.36;99919.06;130324;1254;115010;-79
2023/12/29 04:12:50;;;;;;;9.00;6.00;;;;;;;1.66;91.80;99910.25;130258;1259;114715;-77
2023/12/29 04:15:52;;;;;;;8.90;5.90;;;;;;;1.68;92.05;99902.48;130160;1272;115007;-76
2023/12/29 04:18:55;;;;;;;10.50;5.90;;;;;;;1.69;91.96;99901.92;130135;1264;114821;-78
2023/12/29 04:21:57;;;;;;;9.70;6.50;;;;;;;1.70;92.15;99895.21;130232;1263;114768;-76
2023/12/29 04:24:59;;;;;;;7.30;6.00;;;;;;;1.69;92.03;99893.13;130138;1260;127359;-77
2023/12/29 04:28:01;;;;;;;8.20;5.80;;;;;;;1.66;91.84;99894.94;130213;1270;114885;-77
2023/12/29 04:31:03;;;;;;;7.80;4.90;;;;;;;1.64;91.59;99890.77;130236;1268;114743;-77
2023/12/29 04:34:05;;;;;;;9.00;5.90;;;;;;;1.62;91.43;99887.80;129886;1263;114859;-77
2023/12/29 04:37:07;;;;;;;8.30;5.60;;;;;;;1.60;91.39;99882.56;130263;1260;115249;-77
2023/12/29 04:40:10;;;;;;;8.30;6.00;;;;;;;1.57;91.23;99884.39;130239;1260;114817;-71
2023/12/29 04:43:13;;;;;;;7.00;5.20;;;;;;;1.54;91.38;99891.46;130183;1262;114810;-78
2023/12/29 04:46:15;;;;;;;6.80;5.90;;;;;;;1.50;91.13;99887.67;130161;1260;115052;-73
2023/12/29 04:49:17;;;;;;;8.00;6.10;;;;;;;1.46;91.25;99885.65;130257;1260;114860;-77
2023/12/29 04:52:19;;;;;;;7.70;5.50;;;;;;;1.43;91.07;99879.19;130300;1259;114808;-78
2023/12/29 04:55:21;;;;;;;9.00;6.00;;;;;;;1.43;91.23;99880.60;130214;1259;115385;-77
2023/12/29 04:58:23;;;;;;;9.30;6.40;;;;;;;1.41;91.31;99882.06;130317;1254;114693;-77
2023/12/29 05:01:25;;;;;;;8.10;5.20;;;;;;;1.39;91.12;99881.74;129906;1263;115091;-78
2023/12/29 05:04:28;;;;;;;9.10;5.90;;;;;;;1.37;91.29;99877.19;130263;1260;114761;-77
2023/12/29 05:07:30;;;;;;;7.80;6.30;;;;;;;1.37;91.30;99876.14;130132;1267;114891;-76
2023/12/29 05:10:34;;;;;;;9.10;4.70;;;;;;;1.40;91.71;99876.09;129854;1260;128020;-78
2023/12/29 05:13:36;;;;;;;7.80;5.30;;;;;;;1.46;92.52;99869.64;130025;1277;116491;-77
2023/12/29 05:16:38;;;;;;;7.40;4.90;;;;;;;1.52;92.93;99867.59;130166;1268;114814;-77
2023/12/29 05:19:40;;;;;;;8.50;6.40;;;;;;;1.58;92.91;99865.87;130109;1261;114827;-73
2023/12/29 05:22:42;;;;;;;8.70;6.00;;;;;;;1.64;93.10;99860.14;129943;1259;115348;-77
2023/12/29 05:25:44;;;;;;;8.10;5.60;;;;;;;1.69;93.02;99865.66;130209;1255;114715;-75
2023/12/29 05:28:47;;;;;;;10.60;6.90;;;;;;;1.74;93.33;99868.40;130244;1254;115594;-78
2023/12/29 05:31:49;;;;;;;12.30;7.00;;;;;;;1.77;93.10;99870.79;130186;1260;129483;-78
2023/12/29 05:34:51;;;;;;;10.70;6.40;;;;;;;1.80;93.08;99868.78;130198;1277;114721;-78
2023/12/29 05:37:53;;;;;;;9.60;6.20;;;;;;;1.81;92.88;99868.07;130317;1267;114728;-79
2023/12/29 05:40:55;;;;;;;9.70;6.90;;;;;;;1.80;92.81;99870.02;130230;1260;115429;-78
2023/12/29 05:43:57;;;;;;;9.60;5.50;;;;;;;1.79;92.59;99865.81;130261;1259;116440;-79
2023/12/29 05:47:00;;;;;;;9.40;6.90;;;;;;;1.79;92.98;99866.34;130171;1265;114734;-79
2023/12/29 05:50:02;;;;;;;8.30;6.50;;;;;;;1.80;93.16;99869.66;130316;1268;114799;-76
2023/12/29 05:53:05;;;;;;;8.30;6.20;;;;;;;1.83;93.29;99865.91;129941;1263;128066;-77
2023/12/29 05:56:11;;;;;;;9.80;6.70;;;;;;;1.87;93.49;99865.30;130212;1259;114820;-77
2023/12/29 05:59:13;;;;;;;9.50;6.10;;;;;;;1.91;93.67;99862.22;130304;1270;114855;-79
2023/12/29 06:02:15;;;;;;;8.20;5.70;;;;;;;1.96;93.91;99851.73;130259;1260;114782;-77
2023/12/29 06:05:17;;;;;;;6.80;4.50;;;;;;;2.02;94.08;99854.60;130382;1254;114724;-78
2023/12/29 06:08:19;;;;;;;8.60;5.40;;;;;;;2.05;94.29;99853.46;130127;1260;115602;-77
2023/12/29 06:11:21;;;;;;;8.20;6.00;;;;;;;2.10;94.23;99853.16;130124;1260;115385;-79
2023/12/29 06:14:23;;;;;;;8.30;5.50;;;;;;;2.17;94.58;99848.83;130014;1254;115043;-79
2023/12/29 06:17:25;;;;;;;8.00;5.30;;;;;;;2.22;94.53;99847.10;130170;1268;114769;-78
2023/12/29 06:20:27;;;;;;;6.10;4.30;;;;;;;2.26;94.68;99841.02;130279;1268;115240;-77
2023/12/29 06:23:29;;;;;;;11.70;6.10;;;;;;;2.30;94.59;99838.46;130335;1260;115276;-77
2023/12/29 06:26:31;;;;;;;6.70;5.40;;;;;;;2.35;94.88;99837.46;130249;1254;115167;-75
2023/12/29 06:29:33;;;;;;;6.30;5.00;;;;;;;2.40;94.85;99832.95;130308;1260;114789;-76
2023/12/29 06:32:35;;;;;;;6.30;4.50;;;;;;;2.45;94.94;99842.18;130358;1259;114821;-78
2023/12/29 06:35:38;;;;;;;8.30;5.00;;;;;;;2.50;95.15;99840.99;130220;1278;129826;-77
2023/12/29 06:38:41;;;;;;;6.70;4.00;;;;;;;2.56;95.31;99836.63;129821;1264;114824;-78
2023/12/29 06:41:43;;;;;;;5.70;4.00;;;;;;;2.62;95.25;99831.55;130268;1277;114734;-76
2023/12/29 06:44:46;;;;;;;6.50;4.00;;;;;;;2.66;95.28;99829.33;130233;1277;115202;-78
2023/12/29 06:47:48;;;;;;;5.60;4.40;;;;;;;2.71;95.30;99827.80;130053;1257;115069;-76
2023/12/29 06:50:50;;;;;;;7.60;4.90;;;;;;;2.76;95.30;99832.27;130167;1260;115199;-79
2023/12/29 06:53:52;;;;;;;7.50;4.60;;;;;;;2.80;95.24;99836.95;130257;1262;115030;-78
2023/12/29 06:56:54;;;;;;;8.30;4.80;;;;;;;2.84;95.49;99838.77;129892;1277;127132;-79
2023/12/29 06:59:56;;;;;;;6.40;4.60;;;;;;;2.88;95.16;99841.66;130149;1260;115091;-79
2023/12/29 07:03:00;;;;;;;5.30;4.10;;;;;;;2.92;95.47;99838.56;130220;1260;114775;-80
2023/12/29 07:06:02;;;;;;;7.10;5.80;;;;;;;2.96;95.47;99844.27;130192;1260;114731;-75
2023/12/29 07:09:05;;;;;;;8.70;5.40;;;;;;;3.01;95.53;99839.73;130178;1260;114786;-79
2023/12/29 07:12:07;;;;;;;8.10;5.10;;;;;;;3.07;95.45;99837.65;130269;1260;114716;-80
2023/12/29 07:15:10;;;;;;;9.80;5.20;;;;;;;3.14;95.69;99838.34;130266;1260;114777;-80
2023/12/29 07:18:12;;;;;;;8.20;5.40;;;;;;;3.22;95.79;99840.06;130245;1254;128891;-78
2023/12/29 07:21:16;;;;;;;9.40;5.00;;;;;;;3.31;95.92;99840.37;130135;1260;114738;-79
2023/12/29 07:24:18;;;;;;;8.90;5.90;;;;;;;3.41;96.12;99843.09;130272;1260;115390;-80
2023/12/29 07:27:23;;;;;;;9.50;5.60;;;;;;;3.52;96.07;99844.39;130178;1254;114744;-80
2023/12/29 07:30:25;;;;;;;10.90;5.70;;;;;;;3.62;96.23;99844.80;130144;1258;114777;-80
2023/12/29 07:33:28;;;;;;;8.40;5.00;;;;;;;3.74;96.20;99844.66;130124;1257;114841;-80
2023/12/29 07:36:30;;;;;;;8.60;4.70;;;;;;;3.85;96.45;99844.86;130137;1267;114784;-79
2023/12/29 07:39:32;;;;;;;10.40;5.60;;;;;;;3.97;96.30;99841.87;129976;1270;114737;-78
2023/12/29 07:42:35;;;;;;;7.50;4.80;;;;;;;4.07;96.30;99841.38;129960;1262;115130;-79
2023/12/29 07:45:37;;;;;;;11.80;5.60;;;;;;;4.20;95.83;99840.13;130118;1261;114720;-80
2023/12/29 07:48:39;;;;;;;7.30;5.10;;;;;;;4.28;95.73;99836.67;130367;1260;114778;-78
2023/12/29 07:51:42;;;;;;;7.40;4.20;;;;;;;4.35;95.80;99828.48;129924;1260;114732;-80
2023/12/29 07:54:44;;;;;;;6.90;4.60;;;;;;;4.43;95.55;99831.80;130018;1260;128109;-77
2023/12/29 07:57:47;;;;;;;8.90;4.90;;;;;;;4.49;95.57;99827.52;130234;1260;114859;-80
2023/12/29 08:00:49;;;;;;;9.10;5.00;;;;;;;4.56;95.57;99831.38;130293;1273;115019;-79
2023/12/29 08:03:51;;;;;;;6.40;4.30;;;;;;;4.62;95.24;99828.36;130228;1277;115240;-78
2023/12/29 08:06:53;;;;;;;9.20;4.50;;;;;;;4.67;95.17;99826.95;130192;1277;114758;-78
2023/12/29 08:09:56;;;;;;;8.50;5.00;;;;;;;4.73;95.15;99819.34;130315;1254;114808;-81
2023/12/29 08:12:58;;;;;;;7.10;4.00;;;;;;;4.79;94.90;99815.77;129854;1264;114937;-79
2023/12/29 08:16:00;;;;;;;6.50;4.40;;;;;;;4.84;94.97;99816.83;130259;1278;115350;-81
2023/12/29 08:19:02;;;;;;;7.90;4.00;;;;;;;4.91;95.08;99816.44;130352;1254;114749;-82
2023/12/29 08:22:04;;;;;;;8.30;4.10;;;;;;;4.97;94.87;99816.04;130207;1254;114798;-80
2023/12/29 08:25:07;;;;;;;6.00;3.70;;;;;;;5.05;94.82;99819.33;130254;1260;115196;-80
2023/12/29 08:28:09;;;;;;;6.30;3.80;;;;;;;5.12;94.80;99819.77;130324;1254;114748;-78
2023/12/29 08:31:11;;;;;;;6.20;4.80;;;;;;;5.22;94.75;99816.97;130123;1261;114805;-79
2023/12/29 08:34:13;;;;;;;5.50;3.90;;;;;;;5.32;94.55;99816.98;130233;1264;114774;-77
2023/12/29 08:37:19;;;;;;;6.20;4.30;;;;;;;5.43;94.58;99826.30;130270;1260;114793;-78
2023/12/29 08:40:21;;;;;;;7.00;3.60;;;;;;;5.53;94.61;99824.70;130284;1254;114722;-79
2023/12/29 08:43:23;;;;;;;6.50;4.40;;;;;;;5.64;94.55;99821.46;130197;1260;115333;-76
2023/12/29 08:46:26;;;;;;;7.40;3.70;;;;;;;5.76;94.58;99816.96;130261;1259;114732;-77
2023/12/29 08:49:28;;;;;;;6.30;3.80;;;;;;;5.86;94.26;99815.86;130065;1264;114869;-77
2023/12/29 08:52:30;;;;;;;5.50;3.70;;;;;;;5.98;94.19;99812.42;130209;1261;114798;-77
2023/12/29 08:55:32;;;;;;;5.00;2.90;;;;;;;6.09;94.10;99818.92;130111;1260;114812;-77
2023/12/29 08:58:34;;;;;;;5.50;3.20;;;;;;;6.21;94.18;99818.45;130192;1260;129775;-76
2023/12/29 09:01:36;;;;;;;7.10;3.80;;;;;;;6.34;93.77;99829.31;130167;1261;114766;-79
2023/12/29 09:04:38;;;;;;;6.00;3.00;;;;;;;6.45;93.70;99835.42;130392;1260;114968;-78
2023/12/29 09:07:40;;;;;;;5.80;3.40;;;;;;;6.58;93.48;99835.45;130189;1270;114938;-76
2023/12/29 09:10:42;;;;;;;4.30;2.60;;;;;;;6.72;93.66;99833.12;130410;1260;114722;-79
2023/12/29 09:13:44;;;;;;;6.00;2.50;;;;;;;6.84;93.23;99833.69;130459;1254;114973;-78
2023/12/29 09:16:46;;;;;;;7.70;3.30;;;;;;;6.97;93.21;99833.34;129951;1264;115162;-81
2023/12/29 09:19:49;;;;;;;5.50;2.90;;;;;;;7.09;92.62;99835.29;130190;1261;114732;-81
2023/12/29 09:22:51;;;;;;;7.30;3.90;;;;;;;7.22;92.60;99835.27;130308;1270;115628;-81
2023/12/29 09:25:54;;;;;;;6.60;4.10;;;;;;;7.36;92.85;99830.23;130332;1260;114846;-80
2023/12/29 09:28:56;;;;;;;7.50;3.70;;;;;;;7.50;92.30;99839.56;130191;1258;115399;-78
2023/12/29 09:31:58;;;;;;;9.20;5.00;;;;;;;7.62;91.95;99840.27;130351;1258;114745;-80
2023/12/29 09:35:00;;;;;;;6.60;3.90;;;;;;;7.76;92.01;99841.08;129850;1264;114893;-79
2023/12/29 09:38:04;;;;;;;6.70;4.10;;;;;;;7.90;92.14;99838.84;130258;1258;114703;-79
2023/12/29 09:41:11;;;;;;;10.60;4.80;;;;;;;8.07;92.01;99840.19;130255;1259;115195;-79
2023/12/29 09:44:14;;;;;;;7.80;4.80;;;;;;;8.24;91.67;99831.40;130192;1260;114820;-80
2023/12/29 09:47:23;;;;;;;4.30;1.90;;;;;;;8.41;91.56;99831.67;130171;1259;114779;-79
2023/12/29 09:50:25;;;;;;;4.00;2.30;;;;;;;8.58;91.07;99828.36;130203;1259;114820;-77
2023/12/29 09:53:29;;;;;;;3.00;2.00;;;;;;;8.75;90.77;99824.88;130073;1260;114794;-79
2023/12/29 09:56:31;;;;;;;3.10;2.80;;;;;;;8.92;90.49;99833.65;130123;1259;114731;-80
2023/12/29 09:59:38;;;;;;;4.40;1.90;;;;;;;9.08;89.88;99833.91;130301;1277;114809;-77
2023/12/29 10:02:40;;;;;;;3.40;1.60;;;;;;;9.23;89.38;99832.96;129973;1261;114815;-78
2023/12/29 10:05:44;;;;;;;2.60;2.00;;;;;;;9.39;89.06;99830.92;130274;1260;114805;-78
2023/12/29 10:08:47;;;;;;;2.80;2.00;;;;;;;9.51;88.74;99827.42;129955;1276;114861;-78
2023/12/29 10:11:50;;;;;;;3.70;2.20;;;;;;;9.64;88.24;99828.53;130042;1276;129149;-74
2023/12/29 10:15:09;;;;;;;2.80;2.00;;;;;;;9.74;87.79;99829.78;130213;1259;114806;-78
2023/12/29 10:18:28;;;;;;;3.20;1.70;;;;;;;9.81;87.49;99823.66;130158;1259;115170;-78
2023/12/29 10:21:36;;;;;;;3.60;2.20;;;;;;;9.85;86.90;99822.73;130180;1254;114734;-82
2023/12/29 10:24:39;;;;;;;5.10;3.50;;;;;;;9.93;86.39;99821.48;129925;1266;114992;-80
2023/12/29 10:27:41;;;;;;;5.20;2.80;;;;;;;9.99;86.22;99821.69;130166;1258;114808;-77
2023/12/29 10:30:43;;;;;;;5.00;3.00;;;;;;;10.04;85.81;99819.05;130292;1277;114836;-78
2023/12/29 10:33:50;;;;;;;6.30;3.60;;;;;;;10.10;85.58;99822.14;129974;1277;114805;-75
2023/12/29 10:36:52;;;;;;;5.90;3.10;;;;;;;10.16;85.06;99823.00;129931;1254;114812;-80
2023/12/29 10:39:56;;;;;;;9.50;4.90;;;;;;;10.22;84.71;99821.25;130187;1256;115561;-80
2023/12/29 10:43:00;;;;;;;5.00;2.30;;;;;;;10.29;84.38;99822.34;130412;1259;115244;-79
2023/12/29 10:46:08;;;;;;;2.90;1.50;;;;;;;10.38;84.47;99825.41;130166;1258;126665;-81
2023/12/29 10:49:13;;;;;;;3.40;2.40;;;;;;;10.44;83.43;99819.41;129910;1260;114809;-79
2023/12/29 10:52:16;;;;;;;3.10;1.90;;;;;;;10.46;83.25;99817.45;130254;1259;114743;-78
2023/12/29 10:55:18;;;;;;;5.80;1.90;;;;;;;10.48;83.05;99820.24;130226;1254;114777;-70
2023/12/29 10:58:20;;;;;;;2.90;1.80;;;;;;;10.47;82.63;99819.17;130377;1259;114808;-81
2023/12/29 11:01:23;;;;;;;2.50;1.80;;;;;;;10.49;82.34;99817.52;130303;1260;114657;-81
2023/12/29 11:04:25;;;;;;;3.30;2.10;;;;;;;10.52;82.20;99807.52;129813;1277;127662;-82
2023/12/29 11:07:36;;;;;;;3.30;1.80;;;;;;;10.57;82.01;99801.85;130232;1259;114772;-78
2023/12/29 11:10:39;;;;;;;3.60;2.30;;;;;;;10.65;81.80;99803.37;130035;1260;242085;-78
2023/12/29 11:13:41;;;;;;;3.60;1.50;;;;;;;10.75;81.95;99800.66;130208;1259;114820;-81
2023/12/29 11:16:44;;;;;;;3.20;1.60;;;;;;;10.83;81.22;99799.86;130055;1259;114773;-82
2023/12/29 11:19:48;;;;;;;2.90;1.70;;;;;;;10.89;81.38;99793.93;130108;1275;114744;-81
2023/12/29 11:22:50;;;;;;;3.60;1.70;;;;;;;10.92;80.90;99791.59;129823;1256;127591;-82
2023/12/29 11:25:52;;;;;;;6.60;2.00;;;;;;;10.93;80.44;99792.61;129890;1270;114731;-82
2023/12/29 11:28:55;;;;;;;3.70;1.90;;;;;;;10.93;80.14;99784.23;129974;1272;114857;-82
2023/12/29 11:31:57;;;;;;;3.30;2.10;;;;;;;10.93;80.11;99777.60;130213;1260;115344;-81
2023/12/29 11:35:06;;;;;;;3.40;2.20;;;;;;;10.95;80.05;99771.80;129818;1259;114802;-81
2023/12/29 11:38:26;;;;;;;3.80;2.20;;;;;;;10.99;79.52;99772.48;129880;1257;114845;-81
2023/12/29 11:41:54;;;;;;;3.00;2.10;;;;;;;11.06;79.47;99764.17;129740;1261;128061;-82
2023/12/29 11:44:56;;;;;;;3.30;1.80;;;;;;;11.14;79.37;99759.23;129802;1258;115820;-81
2023/12/29 11:48:02;;;;;;;6.70;2.20;;;;;;;11.18;79.01;99765.27;130174;1257;114716;-81
2023/12/29 11:51:27;;;;;;;3.70;2.40;;;;;;;11.23;78.85;99764.94;130222;1259;114785;-80
2023/12/29 11:54:29;;;;;;;4.10;2.50;;;;;;;11.26;78.48;99758.49;129991;1259;114721;-81
2023/12/29 11:57:32;;;;;;;6.20;2.70;;;;;;;11.26;78.31;99752.41;129921;1254;114759;-81
2023/12/29 12:00:41;;;;;;;6.70;2.90;;;;;;;11.27;78.14;99762.56;130268;1259;115501;-81
2023/12/29 12:03:44;;;;;;;3.60;2.00;;;;;;;11.30;77.63;99770.79;130226;1259;114780;-79
2023/12/29 12:06:46;;;;;;;3.30;2.00;;;;;;;11.33;77.45;99775.25;130228;1259;114659;-82
2023/12/29 12:09:52;;;;;;;6.40;2.90;;;;;;;11.35;76.83;99768.29;130333;1259;115227;-81
2023/12/29 12:12:56;;;;;;;5.30;2.80;;;;;;;11.34;77.07;99766.58;130297;1268;114779;-81
2023/12/29 12:15:58;;;;;;;5.30;3.00;;;;;;;11.33;76.97;99767.17;130209;1259;114725;-82
2023/12/29 12:19:01;;;;;;;7.10;3.60;;;;;;;11.32;75.90;99767.27;130127;1271;114722;-78
2023/12/29 12:22:05;;;;;;;4.60;2.40;;;;;;;11.30;75.97;99772.37;130139;1259;114791;-83
2023/12/29 12:25:09;;;;;;;4.90;2.70;;;;;;;11.28;76.05;99773.05;130030;1259;114735;-82
2023/12/29 12:28:14;;;;;;;7.80;3.00;;;;;;;11.28;76.11;99768.75;130187;1259;115116;-81
2023/12/29 12:31:18;;;;;;;7.00;3.40;;;;;;;11.30;76.12;99767.55;129924;1262;114853;-76
2023/12/29 12:34:20;;;;;;;4.70;2.70;;;;;;;11.34;76.27;99771.04;129905;1278;128709;-81
2023/12/29 12:37:27;;;;;;;7.20;4.70;;;;;;;11.39;75.92;99771.98;130136;1257;114776;-82
2023/12/29 12:40:29;;;;;;;31.40;14.70;;;;;;;11.42;75.71;99774.13;129796;1259;114874;-81
2023/12/29 12:43:32;;;;;;;14.80;10.20;;;;;;;11.45;75.51;99772.71;130281;1259;114657;-81
2023/12/29 12:46:38;;;;;;;10.30;7.20;;;;;;;11.47;75.74;99780.11;130139;1259;114853;-82
2023/12/29 12:49:41;;;;;;;11.50;8.70;;;;;;;11.49;75.55;99779.79;129896;1263;127833;-82
2023/12/29 12:52:43;;;;;;;14.60;8.50;;;;;;;11.49;75.33;99777.08;130436;1257;114930;-82
2023/12/29 12:55:48;;;;;;;10.70;6.80;;;;;;;11.51;75.02;99777.02;129885;1259;114779;-81
2023/12/29 12:58:50;;;;;;;15.30;10.00;;;;;;;11.52;75.26;99776.05;130279;1256;115329;-81
2023/12/29 13:01:52;;;;;;;15.10;9.60;;;;;;;11.53;74.84;99771.83;130157;1259;114740;-80
2023/12/29 13:04:55;;;;;;;12.50;7.60;;;;;;;11.54;74.78;99771.42;130304;1259;114884;-81
2023/12/29 13:07:57;;;;;;;9.40;6.70;;;;;;;11.55;74.73;99768.70;129990;1256;127713;-82
2023/12/29 13:11:02;;;;;;;11.50;6.90;;;;;;;11.56;74.38;99769.71;130161;1259;114744;-81
2023/12/29 13:14:05;;;;;;;11.80;7.20;;;;;;;11.57;74.65;99763.25;129850;1259;115514;-82
2023/12/29 13:17:10;;;;;;;12.80;7.60;;;;;;;11.56;74.52;99763.62;130463;1256;114739;-77
2023/12/29 13:20:12;;;;;;;;;;;;;;;11.56;74.22;99762.73;130122;1261;115153;-81
2023/12/29 13:23:14;;;;;;;31.30;18.40;;;;;;;11.54;74.39;99763.92;130092;1259;114824;-80
2023/12/29 13:26:18;;;;;;;13.60;7.70;;;;;;;11.52;73.69;99769.60;130194;1256;114730;-81
2023/12/29 13:29:22;;;;;;;10.40;5.30;;;;;;;11.48;73.79;99765.91;129865;1256;114758;-79
2023/12/29 13:32:28;;;;;;;7.00;4.40;;;;;;;11.41;73.73;99770.62;130065;1262;114715;-81
2023/12/29 13:35:34;;;;;;;7.50;4.90;;;;;;;11.33;73.33;99769.84;129780;1259;114876;-79
2023/12/29 13:38:43;;;;;;;10.20;7.90;;;;;;;11.26;73.12;99775.84;129823;1257;116443;-81
2023/12/29 13:41:46;;;;;;;6.90;5.50;;;;;;;11.17;73.10;99768.67;130235;1257;126884;-80
2023/12/29 13:44:49;;;;;;;10.20;8.20;;;;;;;11.06;72.72;99766.33;130097;1259;114768;-77
2023/12/29 13:47:52;;;;;;;9.30;5.80;;;;;;;10.92;72.67;99762.50;129880;1262;114876;-80
2023/12/29 13:50:55;;;;;;;9.20;5.00;;;;;;;10.78;72.49;99759.92;130231;1261;115387;-81
2023/12/29 13:53:58;;;;;;;6.90;4.30;;;;;;;10.64;72.66;99755.73;130104;1259;114767;-79
2023/12/29 13:57:01;;;;;;;6.50;4.50;;;;;;;10.49;72.55;99755.90;130282;1256;114806;-80
2023/12/29 14:00:22;;;;;;;4.80;3.30;;;;;;;10.35;72.69;99755.60;130216;1272;114751;-80
2023/12/29 14:03:28;;;;;;;6.50;2.80;;;;;;;10.21;72.33;99750.66;129896;1278;114937;-80
2023/12/29 14:07:00;;;;;;;5.00;3.50;;;;;;;10.09;72.81;99752.39;129961;1270;114717;-80